Aviation Digital Data Service (ADDS)

Output produced by METARs form (0203 UTC 31 March 2015)
found at http://aviationweather.gov/adds/metars/
 
KRUT 302320Z 3100/3124 26008G15KT P6SM VCSH BKN050 
     FM310400 29007KT P6SM BKN035 
     FM311300 30008KT P6SM SCT045 AMD LTD TO CLD VIS AND WIND